sensor_id;sensor_type;location;lat;lon;timestamp;temperature;humidity
39677;DHT22;27789;50.840;4.386;2023-12-07T00:00:59;4.40;99.90
39677;DHT22;27789;50.840;4.386;2023-12-07T00:03:25;4.30;99.90
39677;DHT22;27789;50.840;4.386;2023-12-07T00:05:50;4.30;99.90
39677;DHT22;27789;50.840;4.386;2023-12-07T00:08:16;4.30;99.90
39677;DHT22;27789;50.840;4.386;2023-12-07T00:10:41;4.30;99.90
39677;DHT22;27789;50.840;4.386;2023-12-07T00:13:07;4.30;99.90
39677;DHT22;27789;50.840;4.386;2023-12-07T00:15:32;4.40;99.90
39677;DHT22;27789;50.840;4.386;2023-12-07T00:17:58;4.40;99.90
39677;DHT22;27789;50.840;4.386;2023-12-07T00:20:25;4.40;99.90
39677;DHT22;27789;50.840;4.386;2023-12-07T00:22:51;4.40;99.90
39677;DHT22;27789;50.840;4.386;2023-12-07T00:25:16;4.30;99.90
39677;DHT22;27789;50.840;4.386;2023-12-07T00:27:41;4.30;99.90
39677;DHT22;27789;50.840;4.386;2023-12-07T00:30:07;4.40;99.90
39677;DHT22;27789;50.840;4.386;2023-12-07T00:32:34;4.40;99.90
39677;DHT22;27789;50.840;4.386;2023-12-07T00:34:59;4.50;99.90
39677;DHT22;27789;50.840;4.386;2023-12-07T00:37:25;4.50;99.90
39677;DHT22;27789;50.840;4.386;2023-12-07T00:39:50;4.60;99.90
39677;DHT22;27789;50.840;4.386;2023-12-07T00:42:15;4.60;99.90
39677;DHT22;27789;50.840;4.386;2023-12-07T00:44:41;4.60;99.90
39677;DHT22;27789;50.840;4.386;2023-12-07T00:47:07;4.60;99.90
39677;DHT22;27789;50.840;4.386;2023-12-07T00:49:32;4.70;99.90
39677;DHT22;27789;50.840;4.386;2023-12-07T00:51:57;4.70;99.90
39677;DHT22;27789;50.840;4.386;2023-12-07T00:54:23;4.70;99.90
39677;DHT22;27789;50.840;4.386;2023-12-07T00:56:48;4.70;99.90
39677;DHT22;27789;50.840;4.386;2023-12-07T00:59:14;4.80;99.90
39677;DHT22;27789;50.840;4.386;2023-12-07T01:01:39;4.70;99.90
39677;DHT22;27789;50.840;4.386;2023-12-07T01:04:05;4.70;99.90
39677;DHT22;27789;50.840;4.386;2023-12-07T01:06:31;4.70;99.90
39677;DHT22;27789;50.840;4.386;2023-12-07T01:08:57;4.70;99.90
39677;DHT22;27789;50.840;4.386;2023-12-07T01:11:22;4.70;99.90
39677;DHT22;27789;50.840;4.386;2023-12-07T01:13:48;4.70;99.90
39677;DHT22;27789;50.840;4.386;2023-12-07T01:16:13;4.70;99.90
39677;DHT22;27789;50.840;4.386;2023-12-07T01:18:39;4.70;99.90
39677;DHT22;27789;50.840;4.386;2023-12-07T01:21:04;4.80;99.90
39677;DHT22;27789;50.840;4.386;2023-12-07T01:23:29;4.80;99.90
39677;DHT22;27789;50.840;4.386;2023-12-07T01:25:55;4.70;99.90
39677;DHT22;27789;50.840;4.386;2023-12-07T01:28:20;4.60;99.90
39677;DHT22;27789;50.840;4.386;2023-12-07T01:30:46;4.60;99.90
39677;DHT22;27789;50.840;4.386;2023-12-07T01:33:11;4.50;99.90
39677;DHT22;27789;50.840;4.386;2023-12-07T01:35:37;4.50;99.90
39677;DHT22;27789;50.840;4.386;2023-12-07T01:38:02;4.50;99.90
39677;DHT22;27789;50.840;4.386;2023-12-07T01:40:27;4.50;99.90
39677;DHT22;27789;50.840;4.386;2023-12-07T01:42:53;4.50;99.90
39677;DHT22;27789;50.840;4.386;2023-12-07T01:45:19;4.50;99.90
39677;DHT22;27789;50.840;4.386;2023-12-07T01:47:44;4.50;99.90
39677;DHT22;27789;50.840;4.386;2023-12-07T01:50:11;4.40;99.90
39677;DHT22;27789;50.840;4.386;2023-12-07T01:52:41;4.40;99.90
39677;DHT22;27789;50.840;4.386;2023-12-07T01:55:08;4.30;99.90
39677;DHT22;27789;50.840;4.386;2023-12-07T01:57:34;4.30;99.90
39677;DHT22;27789;50.840;4.386;2023-12-07T02:00:01;4.30;99.90
39677;DHT22;27789;50.840;4.386;2023-12-07T02:02:26;4.30;99.90
39677;DHT22;27789;50.840;4.386;2023-12-07T02:04:52;4.40;99.90
39677;DHT22;27789;50.840;4.386;2023-12-07T02:07:17;4.30;99.90
39677;DHT22;27789;50.840;4.386;2023-12-07T02:09:43;4.30;99.90
39677;DHT22;27789;50.840;4.386;2023-12-07T02:12:08;4.20;99.90
39677;DHT22;27789;50.840;4.386;2023-12-07T02:14:34;4.10;99.90
39677;DHT22;27789;50.840;4.386;2023-12-07T02:22:00;4.20;99.90
39677;DHT22;27789;50.840;4.386;2023-12-07T02:24:28;4.30;99.90
39677;DHT22;27789;50.840;4.386;2023-12-07T02:26:58;4.30;99.90
39677;DHT22;27789;50.840;4.386;2023-12-07T02:29:24;4.30;99.90
39677;DHT22;27789;50.840;4.386;2023-12-07T02:31:49;4.40;99.90
39677;DHT22;27789;50.840;4.386;2023-12-07T02:34:15;4.40;99.90
39677;DHT22;27789;50.840;4.386;2023-12-07T02:36:40;4.40;99.90
39677;DHT22;27789;50.840;4.386;2023-12-07T02:39:06;4.40;99.90
39677;DHT22;27789;50.840;4.386;2023-12-07T02:41:34;4.40;99.90
39677;DHT22;27789;50.840;4.386;2023-12-07T02:44:00;4.50;99.90
39677;DHT22;27789;50.840;4.386;2023-12-07T02:46:26;4.50;99.90
39677;DHT22;27789;50.840;4.386;2023-12-07T02:48:52;4.60;99.90
39677;DHT22;27789;50.840;4.386;2023-12-07T02:51:17;4.60;99.90
39677;DHT22;27789;50.840;4.386;2023-12-07T02:53:42;4.60;99.90
39677;DHT22;27789;50.840;4.386;2023-12-07T02:56:08;4.60;99.90
39677;DHT22;27789;50.840;4.386;2023-12-07T02:58:34;4.60;99.90
39677;DHT22;27789;50.840;4.386;2023-12-07T03:00:59;4.60;99.90
39677;DHT22;27789;50.840;4.386;2023-12-07T03:03:24;4.60;99.90
39677;DHT22;27789;50.840;4.386;2023-12-07T03:05:50;4.70;99.90
39677;DHT22;27789;50.840;4.386;2023-12-07T03:08:16;4.70;99.90
39677;DHT22;27789;50.840;4.386;2023-12-07T03:10:41;4.70;99.90
39677;DHT22;27789;50.840;4.386;2023-12-07T03:13:07;4.60;99.90
39677;DHT22;27789;50.840;4.386;2023-12-07T03:15:32;4.60;99.90
39677;DHT22;27789;50.840;4.386;2023-12-07T03:17:58;4.60;99.90
39677;DHT22;27789;50.840;4.386;2023-12-07T03:20:25;4.70;99.90
39677;DHT22;27789;50.840;4.386;2023-12-07T03:22:50;4.60;99.90
39677;DHT22;27789;50.840;4.386;2023-12-07T03:25:16;4.60;99.90
39677;DHT22;27789;50.840;4.386;2023-12-07T03:27:41;4.60;99.90
39677;DHT22;27789;50.840;4.386;2023-12-07T03:30:07;4.60;99.90
39677;DHT22;27789;50.840;4.386;2023-12-07T03:32:32;4.60;99.90
39677;DHT22;27789;50.840;4.386;2023-12-07T03:34:58;4.60;99.90
39677;DHT22;27789;50.840;4.386;2023-12-07T03:37:23;4.70;99.90
39677;DHT22;27789;50.840;4.386;2023-12-07T03:39:49;4.70;99.90
39677;DHT22;27789;50.840;4.386;2023-12-07T03:42:14;4.70;99.90
39677;DHT22;27789;50.840;4.386;2023-12-07T03:44:40;4.70;99.90
39677;DHT22;27789;50.840;4.386;2023-12-07T03:47:05;4.70;99.90
39677;DHT22;27789;50.840;4.386;2023-12-07T03:49:31;4.70;99.90
39677;DHT22;27789;50.840;4.386;2023-12-07T03:51:56;5.30;99.90
39677;DHT22;27789;50.840;4.386;2023-12-07T03:54:22;4.60;99.90
39677;DHT22;27789;50.840;4.386;2023-12-07T03:56:47;4.70;99.90
39677;DHT22;27789;50.840;4.386;2023-12-07T03:59:12;4.70;99.90
39677;DHT22;27789;50.840;4.386;2023-12-07T04:01:38;4.70;99.90
39677;DHT22;27789;50.840;4.386;2023-12-07T04:04:04;4.70;99.90
39677;DHT22;27789;50.840;4.386;2023-12-07T04:06:30;4.80;99.90
39677;DHT22;27789;50.840;4.386;2023-12-07T04:08:55;4.80;99.90
39677;DHT22;27789;50.840;4.386;2023-12-07T04:11:21;4.80;99.90
39677;DHT22;27789;50.840;4.386;2023-12-07T04:13:47;4.80;99.90
39677;DHT22;27789;50.840;4.386;2023-12-07T04:16:13;4.80;99.90
39677;DHT22;27789;50.840;4.386;2023-12-07T04:18:38;4.80;99.90
39677;DHT22;27789;50.840;4.386;2023-12-07T04:21:04;4.80;99.90
39677;DHT22;27789;50.840;4.386;2023-12-07T04:23:30;4.70;99.90
39677;DHT22;27789;50.840;4.386;2023-12-07T04:25:56;4.70;99.90
39677;DHT22;27789;50.840;4.386;2023-12-07T04:28:22;4.80;99.90
39677;DHT22;27789;50.840;4.386;2023-12-07T04:30:47;4.80;99.90
39677;DHT22;27789;50.840;4.386;2023-12-07T04:33:13;4.80;99.90
39677;DHT22;27789;50.840;4.386;2023-12-07T04:35:38;4.80;99.90
39677;DHT22;27789;50.840;4.386;2023-12-07T04:38:04;4.80;99.90
39677;DHT22;27789;50.840;4.386;2023-12-07T04:40:29;4.80;99.90
39677;DHT22;27789;50.840;4.386;2023-12-07T04:42:55;4.80;99.90
39677;DHT22;27789;50.840;4.386;2023-12-07T04:45:20;4.70;99.90
39677;DHT22;27789;50.840;4.386;2023-12-07T04:47:45;4.60;99.90
39677;DHT22;27789;50.840;4.386;2023-12-07T04:50:11;4.90;99.90
39677;DHT22;27789;50.840;4.386;2023-12-07T04:52:37;4.70;99.90
39677;DHT22;27789;50.840;4.386;2023-12-07T04:55:02;4.70;99.90
39677;DHT22;27789;50.840;4.386;2023-12-07T04:57:28;4.70;99.90
39677;DHT22;27789;50.840;4.386;2023-12-07T04:59:53;4.60;99.90
39677;DHT22;27789;50.840;4.386;2023-12-07T05:02:19;4.50;99.90
39677;DHT22;27789;50.840;4.386;2023-12-07T05:04:45;4.50;99.90
39677;DHT22;27789;50.840;4.386;2023-12-07T05:07:13;4.50;99.90
39677;DHT22;27789;50.840;4.386;2023-12-07T05:09:39;4.50;99.90
39677;DHT22;27789;50.840;4.386;2023-12-07T05:12:05;4.50;99.90
39677;DHT22;27789;50.840;4.386;2023-12-07T05:14:31;4.50;99.90
39677;DHT22;27789;50.840;4.386;2023-12-07T05:16:57;4.60;99.90
39677;DHT22;27789;50.840;4.386;2023-12-07T05:19:23;4.80;99.90
39677;DHT22;27789;50.840;4.386;2023-12-07T05:21:48;4.60;99.90
39677;DHT22;27789;50.840;4.386;2023-12-07T05:24:15;4.60;99.90
39677;DHT22;27789;50.840;4.386;2023-12-07T05:26:44;4.70;99.90
39677;DHT22;27789;50.840;4.386;2023-12-07T05:29:11;4.70;99.90
39677;DHT22;27789;50.840;4.386;2023-12-07T05:31:36;4.60;99.90
39677;DHT22;27789;50.840;4.386;2023-12-07T05:34:02;4.60;99.90
39677;DHT22;27789;50.840;4.386;2023-12-07T05:36:28;4.50;99.90
39677;DHT22;27789;50.840;4.386;2023-12-07T05:38:54;4.50;99.90
39677;DHT22;27789;50.840;4.386;2023-12-07T05:41:20;4.50;99.90
39677;DHT22;27789;50.840;4.386;2023-12-07T05:43:45;4.50;99.90
39677;DHT22;27789;50.840;4.386;2023-12-07T05:46:10;4.60;99.90
39677;DHT22;27789;50.840;4.386;2023-12-07T05:48:36;4.50;99.90
39677;DHT22;27789;50.840;4.386;2023-12-07T05:51:02;4.50;99.90
39677;DHT22;27789;50.840;4.386;2023-12-07T05:53:28;4.50;99.90
39677;DHT22;27789;50.840;4.386;2023-12-07T05:55:54;4.50;99.90
39677;DHT22;27789;50.840;4.386;2023-12-07T05:58:19;4.50;99.90
39677;DHT22;27789;50.840;4.386;2023-12-07T06:00:45;4.50;99.90
39677;DHT22;27789;50.840;4.386;2023-12-07T06:03:15;4.50;99.90
39677;DHT22;27789;50.840;4.386;2023-12-07T06:05:41;4.40;99.90
39677;DHT22;27789;50.840;4.386;2023-12-07T06:08:07;4.40;99.90
39677;DHT22;27789;50.840;4.386;2023-12-07T06:10:32;4.40;99.90
39677;DHT22;27789;50.840;4.386;2023-12-07T06:12:58;4.30;99.90
39677;DHT22;27789;50.840;4.386;2023-12-07T06:15:26;4.30;99.90
39677;DHT22;27789;50.840;4.386;2023-12-07T06:17:51;4.30;99.90
39677;DHT22;27789;50.840;4.386;2023-12-07T06:20:17;4.30;99.90
39677;DHT22;27789;50.840;4.386;2023-12-07T06:22:42;4.40;99.90
39677;DHT22;27789;50.840;4.386;2023-12-07T06:25:08;4.40;99.90
39677;DHT22;27789;50.840;4.386;2023-12-07T06:27:35;4.40;99.90
39677;DHT22;27789;50.840;4.386;2023-12-07T06:30:00;4.40;99.90
39677;DHT22;27789;50.840;4.386;2023-12-07T06:32:27;4.40;99.90
39677;DHT22;27789;50.840;4.386;2023-12-07T06:34:53;4.40;99.90
39677;DHT22;27789;50.840;4.386;2023-12-07T06:37:18;4.60;99.90
39677;DHT22;27789;50.840;4.386;2023-12-07T06:39:45;4.40;99.90
39677;DHT22;27789;50.840;4.386;2023-12-07T06:42:11;4.40;99.90
39677;DHT22;27789;50.840;4.386;2023-12-07T06:44:36;4.40;99.90
39677;DHT22;27789;50.840;4.386;2023-12-07T06:47:02;4.40;99.90
39677;DHT22;27789;50.840;4.386;2023-12-07T06:49:30;4.40;99.90
39677;DHT22;27789;50.840;4.386;2023-12-07T06:51:55;4.40;99.90
39677;DHT22;27789;50.840;4.386;2023-12-07T06:54:21;4.40;99.90
39677;DHT22;27789;50.840;4.386;2023-12-07T06:56:47;4.50;99.90
39677;DHT22;27789;50.840;4.386;2023-12-07T06:59:12;4.50;99.90
39677;DHT22;27789;50.840;4.386;2023-12-07T07:01:38;4.50;99.90
39677;DHT22;27789;50.840;4.386;2023-12-07T07:04:04;4.50;99.90
39677;DHT22;27789;50.840;4.386;2023-12-07T07:06:29;4.50;99.90
39677;DHT22;27789;50.840;4.386;2023-12-07T07:08:54;4.50;99.90
39677;DHT22;27789;50.840;4.386;2023-12-07T07:11:20;4.50;99.90
39677;DHT22;27789;50.840;4.386;2023-12-07T07:13:45;4.50;99.90
39677;DHT22;27789;50.840;4.386;2023-12-07T07:16:11;4.50;99.90
39677;DHT22;27789;50.840;4.386;2023-12-07T07:18:39;4.60;99.90
39677;DHT22;27789;50.840;4.386;2023-12-07T07:21:06;4.50;99.90
39677;DHT22;27789;50.840;4.386;2023-12-07T07:23:32;4.50;99.90
39677;DHT22;27789;50.840;4.386;2023-12-07T07:25:58;4.60;99.90
39677;DHT22;27789;50.840;4.386;2023-12-07T07:28:24;4.50;99.90
39677;DHT22;27789;50.840;4.386;2023-12-07T07:30:49;4.50;99.90
39677;DHT22;27789;50.840;4.386;2023-12-07T07:33:16;4.50;99.90
39677;DHT22;27789;50.840;4.386;2023-12-07T07:35:42;4.50;99.90
39677;DHT22;27789;50.840;4.386;2023-12-07T07:38:07;4.50;99.90
39677;DHT22;27789;50.840;4.386;2023-12-07T07:40:33;4.40;99.90
39677;DHT22;27789;50.840;4.386;2023-12-07T07:42:59;4.50;99.90
39677;DHT22;27789;50.840;4.386;2023-12-07T07:45:24;4.50;99.90
39677;DHT22;27789;50.840;4.386;2023-12-07T07:47:50;4.50;99.90
39677;DHT22;27789;50.840;4.386;2023-12-07T07:50:15;4.50;99.90
39677;DHT22;27789;50.840;4.386;2023-12-07T07:52:42;4.50;99.90
39677;DHT22;27789;50.840;4.386;2023-12-07T07:55:07;4.50;99.90
39677;DHT22;27789;50.840;4.386;2023-12-07T07:57:33;4.60;99.90
39677;DHT22;27789;50.840;4.386;2023-12-07T07:59:58;5.20;99.90
39677;DHT22;27789;50.840;4.386;2023-12-07T08:02:24;4.60;99.90
39677;DHT22;27789;50.840;4.386;2023-12-07T08:04:49;4.70;99.90
39677;DHT22;27789;50.840;4.386;2023-12-07T08:07:17;4.70;99.90
39677;DHT22;27789;50.840;4.386;2023-12-07T08:09:42;4.70;99.90
39677;DHT22;27789;50.840;4.386;2023-12-07T08:12:08;4.80;99.90
39677;DHT22;27789;50.840;4.386;2023-12-07T08:14:37;4.80;99.90
39677;DHT22;27789;50.840;4.386;2023-12-07T08:17:03;4.80;99.90
39677;DHT22;27789;50.840;4.386;2023-12-07T08:19:28;4.90;99.90
39677;DHT22;27789;50.840;4.386;2023-12-07T08:21:53;4.90;99.90
39677;DHT22;27789;50.840;4.386;2023-12-07T08:24:19;5.00;99.90
39677;DHT22;27789;50.840;4.386;2023-12-07T08:26:44;5.00;99.90
39677;DHT22;27789;50.840;4.386;2023-12-07T08:29:10;5.10;99.90
39677;DHT22;27789;50.840;4.386;2023-12-07T08:31:35;5.10;99.90
39677;DHT22;27789;50.840;4.386;2023-12-07T08:34:01;5.20;99.90
39677;DHT22;27789;50.840;4.386;2023-12-07T08:36:26;5.30;99.90
39677;DHT22;27789;50.840;4.386;2023-12-07T08:38:52;5.40;99.90
39677;DHT22;27789;50.840;4.386;2023-12-07T08:41:18;5.40;99.90
39677;DHT22;27789;50.840;4.386;2023-12-07T08:43:43;5.40;99.90
39677;DHT22;27789;50.840;4.386;2023-12-07T08:46:09;5.40;99.90
39677;DHT22;27789;50.840;4.386;2023-12-07T08:48:35;5.40;99.90
39677;DHT22;27789;50.840;4.386;2023-12-07T08:51:01;5.30;99.90
39677;DHT22;27789;50.840;4.386;2023-12-07T08:53:27;5.40;99.90
39677;DHT22;27789;50.840;4.386;2023-12-07T08:55:53;5.40;99.90
39677;DHT22;27789;50.840;4.386;2023-12-07T08:58:18;5.40;99.90
39677;DHT22;27789;50.840;4.386;2023-12-07T09:00:44;5.40;99.90
39677;DHT22;27789;50.840;4.386;2023-12-07T09:03:09;5.50;99.90
39677;DHT22;27789;50.840;4.386;2023-12-07T09:05:35;5.60;99.90
39677;DHT22;27789;50.840;4.386;2023-12-07T09:08:00;5.60;99.90
39677;DHT22;27789;50.840;4.386;2023-12-07T09:10:26;5.60;99.90
39677;DHT22;27789;50.840;4.386;2023-12-07T09:12:52;5.60;99.90
39677;DHT22;27789;50.840;4.386;2023-12-07T09:15:17;5.50;99.90
39677;DHT22;27789;50.840;4.386;2023-12-07T09:17:43;5.50;99.90
39677;DHT22;27789;50.840;4.386;2023-12-07T09:20:08;5.50;99.90
39677;DHT22;27789;50.840;4.386;2023-12-07T09:22:46;5.60;99.90
39677;DHT22;27789;50.840;4.386;2023-12-07T09:25:12;5.60;99.90
39677;DHT22;27789;50.840;4.386;2023-12-07T09:27:38;5.70;99.90
39677;DHT22;27789;50.840;4.386;2023-12-07T09:30:05;5.60;99.90
39677;DHT22;27789;50.840;4.386;2023-12-07T09:32:31;5.60;99.90
39677;DHT22;27789;50.840;4.386;2023-12-07T09:34:57;5.70;99.90
39677;DHT22;27789;50.840;4.386;2023-12-07T09:37:22;5.80;99.90
39677;DHT22;27789;50.840;4.386;2023-12-07T09:39:48;5.90;99.90
39677;DHT22;27789;50.840;4.386;2023-12-07T09:42:13;5.90;99.90
39677;DHT22;27789;50.840;4.386;2023-12-07T09:44:39;6.00;99.90
39677;DHT22;27789;50.840;4.386;2023-12-07T09:47:04;6.00;99.90
39677;DHT22;27789;50.840;4.386;2023-12-07T09:49:34;6.20;99.90
39677;DHT22;27789;50.840;4.386;2023-12-07T09:51:59;6.30;99.90
39677;DHT22;27789;50.840;4.386;2023-12-07T09:54:26;6.40;99.90
39677;DHT22;27789;50.840;4.386;2023-12-07T09:56:52;6.40;99.90
39677;DHT22;27789;50.840;4.386;2023-12-07T09:59:20;6.50;99.90
39677;DHT22;27789;50.840;4.386;2023-12-07T10:01:45;6.50;99.90
39677;DHT22;27789;50.840;4.386;2023-12-07T10:04:20;6.50;99.90
39677;DHT22;27789;50.840;4.386;2023-12-07T10:06:48;6.60;99.90
39677;DHT22;27789;50.840;4.386;2023-12-07T10:09:14;6.70;99.90
39677;DHT22;27789;50.840;4.386;2023-12-07T10:11:40;6.80;99.90
39677;DHT22;27789;50.840;4.386;2023-12-07T10:14:06;6.80;99.90
39677;DHT22;27789;50.840;4.386;2023-12-07T10:16:33;6.90;99.90
39677;DHT22;27789;50.840;4.386;2023-12-07T10:19:16;6.90;99.90
39677;DHT22;27789;50.840;4.386;2023-12-07T10:21:44;7.10;99.90
39677;DHT22;27789;50.840;4.386;2023-12-07T10:24:11;7.20;99.90
39677;DHT22;27789;50.840;4.386;2023-12-07T10:26:39;7.20;99.90
39677;DHT22;27789;50.840;4.386;2023-12-07T10:29:05;7.30;99.90
39677;DHT22;27789;50.840;4.386;2023-12-07T10:31:31;7.50;99.90
39677;DHT22;27789;50.840;4.386;2023-12-07T10:33:58;7.50;99.90
39677;DHT22;27789;50.840;4.386;2023-12-07T10:36:24;8.00;99.90
39677;DHT22;27789;50.840;4.386;2023-12-07T10:38:50;7.90;99.90
39677;DHT22;27789;50.840;4.386;2023-12-07T10:41:19;8.00;99.90
39677;DHT22;27789;50.840;4.386;2023-12-07T10:44:08;8.10;99.90
39677;DHT22;27789;50.840;4.386;2023-12-07T10:46:33;8.20;99.90
39677;DHT22;27789;50.840;4.386;2023-12-07T10:49:04;8.20;99.90
39677;DHT22;27789;50.840;4.386;2023-12-07T10:51:41;8.20;99.90
39677;DHT22;27789;50.840;4.386;2023-12-07T10:54:07;8.30;99.90
39677;DHT22;27789;50.840;4.386;2023-12-07T10:59:02;8.80;99.90
39677;DHT22;27789;50.840;4.386;2023-12-07T11:01:28;9.00;99.90
39677;DHT22;27789;50.840;4.386;2023-12-07T11:03:54;9.20;99.90
39677;DHT22;27789;50.840;4.386;2023-12-07T11:06:21;9.30;99.90
39677;DHT22;27789;50.840;4.386;2023-12-07T11:08:50;9.70;99.90
39677;DHT22;27789;50.840;4.386;2023-12-07T11:13:45;9.80;99.90
39677;DHT22;27789;50.840;4.386;2023-12-07T11:16:12;10.00;99.90
39677;DHT22;27789;50.840;4.386;2023-12-07T11:18:38;10.20;99.90
39677;DHT22;27789;50.840;4.386;2023-12-07T11:21:04;10.20;99.90
39677;DHT22;27789;50.840;4.386;2023-12-07T11:23:29;10.10;99.90
39677;DHT22;27789;50.840;4.386;2023-12-07T11:25:56;9.90;99.90
39677;DHT22;27789;50.840;4.386;2023-12-07T11:28:34;9.80;99.90
39677;DHT22;27789;50.840;4.386;2023-12-07T11:31:00;9.90;99.90
39677;DHT22;27789;50.840;4.386;2023-12-07T11:33:28;10.00;99.90
39677;DHT22;27789;50.840;4.386;2023-12-07T11:36:07;10.10;99.90
39677;DHT22;27789;50.840;4.386;2023-12-07T11:38:33;10.20;99.90
39677;DHT22;27789;50.840;4.386;2023-12-07T11:40:59;10.30;99.90
39677;DHT22;27789;50.840;4.386;2023-12-07T11:45:52;10.40;99.90
39677;DHT22;27789;50.840;4.386;2023-12-07T11:48:18;10.20;99.90
39677;DHT22;27789;50.840;4.386;2023-12-07T11:53:22;9.70;99.90
39677;DHT22;27789;50.840;4.386;2023-12-07T11:55:48;9.40;99.90
39677;DHT22;27789;50.840;4.386;2023-12-07T11:58:14;9.60;99.90
39677;DHT22;27789;50.840;4.386;2023-12-07T12:00:39;9.10;99.90
39677;DHT22;27789;50.840;4.386;2023-12-07T12:03:05;8.90;99.90
39677;DHT22;27789;50.840;4.386;2023-12-07T12:05:31;8.70;99.90
39677;DHT22;27789;50.840;4.386;2023-12-07T12:07:56;8.60;99.90
39677;DHT22;27789;50.840;4.386;2023-12-07T12:10:22;8.50;99.90
39677;DHT22;27789;50.840;4.386;2023-12-07T12:12:51;8.40;99.90
39677;DHT22;27789;50.840;4.386;2023-12-07T12:17:46;8.30;99.90
39677;DHT22;27789;50.840;4.386;2023-12-07T12:20:13;8.20;99.90
39677;DHT22;27789;50.840;4.386;2023-12-07T12:22:42;8.20;99.90
39677;DHT22;27789;50.840;4.386;2023-12-07T12:25:08;8.10;99.90
39677;DHT22;27789;50.840;4.386;2023-12-07T12:27:33;8.30;99.90
39677;DHT22;27789;50.840;4.386;2023-12-07T12:29:59;8.10;99.90
39677;DHT22;27789;50.840;4.386;2023-12-07T12:32:25;8.00;99.90
39677;DHT22;27789;50.840;4.386;2023-12-07T12:34:51;8.00;99.90
39677;DHT22;27789;50.840;4.386;2023-12-07T12:37:17;8.00;99.90
39677;DHT22;27789;50.840;4.386;2023-12-07T12:39:42;7.90;99.90
39677;DHT22;27789;50.840;4.386;2023-12-07T12:42:08;7.90;99.90
39677;DHT22;27789;50.840;4.386;2023-12-07T12:44:36;7.90;99.90
39677;DHT22;27789;50.840;4.386;2023-12-07T12:47:06;7.90;99.90
39677;DHT22;27789;50.840;4.386;2023-12-07T12:49:36;7.90;99.90
39677;DHT22;27789;50.840;4.386;2023-12-07T12:52:02;7.90;99.90
39677;DHT22;27789;50.840;4.386;2023-12-07T12:54:30;7.90;99.90
39677;DHT22;27789;50.840;4.386;2023-12-07T12:56:57;7.90;99.90
39677;DHT22;27789;50.840;4.386;2023-12-07T12:59:23;7.90;99.90
39677;DHT22;27789;50.840;4.386;2023-12-07T13:01:50;7.90;99.90
39677;DHT22;27789;50.840;4.386;2023-12-07T13:04:15;7.90;99.90
39677;DHT22;27789;50.840;4.386;2023-12-07T13:06:40;7.80;99.90
39677;DHT22;27789;50.840;4.386;2023-12-07T13:09:06;7.70;99.90
39677;DHT22;27789;50.840;4.386;2023-12-07T13:11:32;7.70;99.90
39677;DHT22;27789;50.840;4.386;2023-12-07T13:13:58;7.80;99.90
39677;DHT22;27789;50.840;4.386;2023-12-07T13:16:24;7.70;99.90
39677;DHT22;27789;50.840;4.386;2023-12-07T13:18:49;7.80;99.90
39677;DHT22;27789;50.840;4.386;2023-12-07T13:21:15;7.80;99.90
39677;DHT22;27789;50.840;4.386;2023-12-07T13:23:41;7.80;99.90
39677;DHT22;27789;50.840;4.386;2023-12-07T13:26:06;7.70;99.90
39677;DHT22;27789;50.840;4.386;2023-12-07T13:28:32;7.70;99.90
39677;DHT22;27789;50.840;4.386;2023-12-07T13:30:58;7.70;99.90
39677;DHT22;27789;50.840;4.386;2023-12-07T13:33:24;7.70;99.90
39677;DHT22;27789;50.840;4.386;2023-12-07T13:35:50;8.80;99.90
39677;DHT22;27789;50.840;4.386;2023-12-07T13:38:17;8.50;99.90
39677;DHT22;27789;50.840;4.386;2023-12-07T13:40:45;7.60;99.90
39677;DHT22;27789;50.840;4.386;2023-12-07T13:43:10;7.50;99.90
39677;DHT22;27789;50.840;4.386;2023-12-07T13:45:36;7.50;99.90
39677;DHT22;27789;50.840;4.386;2023-12-07T13:48:01;7.50;99.90
39677;DHT22;27789;50.840;4.386;2023-12-07T13:50:27;7.50;99.90
39677;DHT22;27789;50.840;4.386;2023-12-07T13:52:53;7.50;99.90
39677;DHT22;27789;50.840;4.386;2023-12-07T13:55:18;7.50;99.90
39677;DHT22;27789;50.840;4.386;2023-12-07T13:57:43;7.40;99.90
39677;DHT22;27789;50.840;4.386;2023-12-07T14:00:10;7.40;99.90
39677;DHT22;27789;50.840;4.386;2023-12-07T14:02:38;7.30;99.90
39677;DHT22;27789;50.840;4.386;2023-12-07T14:05:04;7.30;99.90
39677;DHT22;27789;50.840;4.386;2023-12-07T14:07:30;7.30;99.90
39677;DHT22;27789;50.840;4.386;2023-12-07T14:09:55;7.40;99.90
39677;DHT22;27789;50.840;4.386;2023-12-07T14:12:21;7.20;99.90
39677;DHT22;27789;50.840;4.386;2023-12-07T14:14:47;7.30;99.90
39677;DHT22;27789;50.840;4.386;2023-12-07T14:17:13;7.30;99.90
39677;DHT22;27789;50.840;4.386;2023-12-07T14:19:39;7.30;99.90
39677;DHT22;27789;50.840;4.386;2023-12-07T14:22:05;7.30;99.90
39677;DHT22;27789;50.840;4.386;2023-12-07T14:24:30;7.20;99.90
39677;DHT22;27789;50.840;4.386;2023-12-07T14:26:56;7.30;99.90
39677;DHT22;27789;50.840;4.386;2023-12-07T14:29:22;7.30;99.90
39677;DHT22;27789;50.840;4.386;2023-12-07T14:31:50;7.30;99.90
39677;DHT22;27789;50.840;4.386;2023-12-07T14:34:17;7.30;99.90
39677;DHT22;27789;50.840;4.386;2023-12-07T14:36:43;7.30;99.90
39677;DHT22;27789;50.840;4.386;2023-12-07T14:39:10;7.30;99.90
39677;DHT22;27789;50.840;4.386;2023-12-07T14:41:45;7.30;99.90
39677;DHT22;27789;50.840;4.386;2023-12-07T14:44:15;7.30;99.90
39677;DHT22;27789;50.840;4.386;2023-12-07T14:46:44;7.30;99.90
39677;DHT22;27789;50.840;4.386;2023-12-07T14:49:14;7.20;99.90
39677;DHT22;27789;50.840;4.386;2023-12-07T14:51:40;7.20;99.90
39677;DHT22;27789;50.840;4.386;2023-12-07T14:54:07;7.30;99.90
39677;DHT22;27789;50.840;4.386;2023-12-07T14:56:35;7.30;99.90
39677;DHT22;27789;50.840;4.386;2023-12-07T14:59:00;7.30;99.90
39677;DHT22;27789;50.840;4.386;2023-12-07T15:01:26;7.30;99.90
39677;DHT22;27789;50.840;4.386;2023-12-07T15:03:51;7.30;99.90
39677;DHT22;27789;50.840;4.386;2023-12-07T15:06:17;7.30;99.90
39677;DHT22;27789;50.840;4.386;2023-12-07T15:08:43;7.30;99.90
39677;DHT22;27789;50.840;4.386;2023-12-07T15:11:09;7.30;99.90
39677;DHT22;27789;50.840;4.386;2023-12-07T15:13:35;7.30;99.90
39677;DHT22;27789;50.840;4.386;2023-12-07T15:16:00;7.30;99.90
39677;DHT22;27789;50.840;4.386;2023-12-07T15:18:26;7.30;99.90
39677;DHT22;27789;50.840;4.386;2023-12-07T15:20:55;7.20;99.90
39677;DHT22;27789;50.840;4.386;2023-12-07T15:23:20;8.20;99.90
39677;DHT22;27789;50.840;4.386;2023-12-07T15:25:46;7.20;99.90
39677;DHT22;27789;50.840;4.386;2023-12-07T15:28:11;7.20;99.90
39677;DHT22;27789;50.840;4.386;2023-12-07T15:30:41;7.40;99.90
39677;DHT22;27789;50.840;4.386;2023-12-07T15:33:06;7.20;99.90
39677;DHT22;27789;50.840;4.386;2023-12-07T15:35:32;7.20;99.90
39677;DHT22;27789;50.840;4.386;2023-12-07T15:37:57;7.40;99.90
39677;DHT22;27789;50.840;4.386;2023-12-07T15:40:23;7.20;99.90
39677;DHT22;27789;50.840;4.386;2023-12-07T15:42:49;7.10;99.90
39677;DHT22;27789;50.840;4.386;2023-12-07T15:45:14;7.10;99.90
39677;DHT22;27789;50.840;4.386;2023-12-07T15:47:40;7.00;99.90
39677;DHT22;27789;50.840;4.386;2023-12-07T15:50:09;7.00;99.90
39677;DHT22;27789;50.840;4.386;2023-12-07T15:52:36;6.90;99.90
39677;DHT22;27789;50.840;4.386;2023-12-07T15:55:02;6.90;99.90